Time;durP1;ratioP1;P1;durP2;ratioP2;P2;SDS_P1;SDS_P2;PMS_P1;PMS_P2;Temp;Humidity;BMP_temperature;BMP_pressure;BME280_temperature;BME280_humidity;BME280_pressure;Samples;Min_cycle;Max_cycle;Signal;HPM_P1;HPM_P2
2022/11/02 00:02:15;;;;;;;6.95;1.85;;;12.90;99.90;;;;;;4969910;28;20557;-82
2022/11/02 00:05:12;;;;;;;7.40;1.50;;;12.40;99.90;;;;;;4949686;28;20400;-83
2022/11/02 00:11:17;;;;;;;;;;;12.80;99.90;;;;;;4954622;28;20042;-82
2022/11/02 00:14:25;;;;;;;;;;;;;;;;;;;;;
2022/11/02 00:20:35;;;;;;;6.78;1.63;;;11.50;99.90;;;;;;4962438;28;20043;-85
2022/11/02 00:23:14;;;;;;;7.05;1.70;;;12.40;99.90;;;;;;4967261;28;20038;-81
2022/11/02 00:25:56;;;;;;;7.15;1.20;;;12.50;99.90;;;;;;4953863;28;20065;-83
2022/11/02 00:28:22;;;;;;;7.55;1.60;;;12.30;99.90;;;;;;4945375;28;20069;-84
2022/11/02 00:30:51;;;;;;;5.90;1.70;;;12.20;99.90;;;;;;4934884;28;20154;-85
2022/11/02 00:33:17;;;;;;;6.75;1.52;;;12.00;99.90;;;;;;4974673;28;20335;-85
2022/11/02 00:35:44;;;;;;;6.50;1.70;;;12.00;99.90;;;;;;4963686;28;20032;-81
2022/11/02 00:38:12;;;;;;;7.10;1.40;;;12.10;99.90;;;;;;4934821;28;20057;-81
2022/11/02 00:40:38;;;;;;;6.45;1.35;;;11.90;99.90;;;;;;4945519;28;20099;-80
2022/11/02 00:43:07;;;;;;;7.13;1.73;;;11.80;99.90;;;;;;4962335;28;20062;-80
2022/11/02 00:45:33;;;;;;;4.78;1.40;;;11.80;99.90;;;;;;4944857;29;20038;-79
2022/11/02 00:47:59;;;;;;;7.25;1.45;;;11.80;99.90;;;;;;4945205;29;20070;-79
2022/11/02 00:50:32;;;;;;;4.72;1.15;;;11.80;99.90;;;;;;4946745;28;20032;-81
2022/11/02 00:53:09;;;;;;;6.13;1.15;;;11.70;99.90;;;;;;4965077;28;20042;-81
2022/11/02 01:03:48;;;;;;;5.90;1.30;;;11.60;99.90;;;;;;4816063;29;20037;-80
2022/11/02 01:06:22;;;;;;;7.07;1.08;;;11.40;99.90;;;;;;4957171;28;20257;-81
2022/11/02 01:08:50;;;;;;;4.47;1.20;;;11.40;99.90;;;;;;4948293;28;20102;-83
2022/11/02 01:11:21;;;;;;;6.57;1.30;;;11.30;99.90;;;;;;4948874;29;20050;-83
2022/11/02 01:14:07;;;;;;;5.80;1.48;;;11.50;99.90;;;;;;4966400;28;20098;-80
2022/11/02 01:17:01;;;;;;;8.70;1.52;;;9.80;99.90;;;;;;4959199;28;20073;-80
2022/11/02 01:20:13;;;;;;;2.92;1.13;;;11.40;99.90;;;;;;4966936;28;20037;-81
2022/11/02 01:22:42;;;;;;;6.57;1.15;;;12.30;99.90;;;;;;4910165;29;20097;-83
2022/11/02 01:25:33;;;;;;;;;;;;;;;;;;;;;
2022/11/02 01:28:21;;;;;;;;;;;;;;;;;;;;;
2022/11/02 01:30:53;;;;;;;8.13;1.65;;;11.30;99.90;;;;;;4962128;28;20530;-82
2022/11/02 01:33:22;;;;;;;3.55;0.98;;;12.00;99.90;;;;;;4955549;28;20090;-82
2022/11/02 01:36:45;;;;;;;;;;;;;;;;;;;;;
2022/11/02 01:39:46;;;;;;;4.22;1.00;;;12.50;99.90;;;;;;4965388;28;20037;-81
2022/11/02 01:42:24;;;;;;;2.83;0.90;;;12.30;99.90;;;;;;4932357;29;20067;-82
2022/11/02 01:44:50;;;;;;;2.60;0.90;;;10.90;99.90;;;;;;4950179;28;20031;-81
2022/11/02 01:50:44;;;;;;;2.13;0.80;;;11.10;99.90;;;;;;4921386;29;20072;-80
2022/11/02 01:53:10;;;;;;;3.30;0.95;;;11.60;99.90;;;;;;4947213;28;20290;-81
2022/11/02 01:55:54;;;;;;;5.05;1.45;;;10.90;99.90;;;;;;4966928;28;20035;-82
2022/11/02 01:58:20;;;;;;;1.98;1.13;;;11.70;99.90;;;;;;4946734;28;20038;-82
2022/11/02 02:01:18;;;;;;;3.72;1.20;;;10.90;99.90;;;;;;4966725;28;20187;-82
2022/11/02 02:03:54;;;;;;;2.97;0.93;;;11.80;99.90;;;;;;4947025;28;20041;-82
2022/11/02 02:06:37;;;;;;;2.60;1.00;;;10.60;99.90;;;;;;4938780;29;20036;-81
2022/11/02 02:09:34;;;;;;;1.20;0.90;;;11.30;99.90;;;;;;4946805;29;20039;-81
2022/11/02 02:16:01;;;;;;;2.45;1.23;;;10.20;99.90;;;;;;4892828;29;20303;-79
2022/11/02 02:18:54;;;;;;;3.03;1.30;;;11.30;99.90;;;;;;4862312;29;20042;-81
2022/11/02 02:21:47;;;;;;;4.95;1.00;;;11.50;99.90;;;;;;4931420;29;20270;-80
2022/11/02 02:24:43;;;;;;;3.30;1.13;;;11.50;99.90;;;;;;4914213;29;20040;-82
2022/11/02 02:27:51;;;;;;;2.60;1.38;;;11.30;99.90;;;;;;4949893;28;20051;-84
2022/11/02 02:31:11;;;;;;;5.43;1.40;;;11.40;99.90;;;;;;4944915;28;20047;-83
2022/11/02 02:34:46;;;;;;;8.50;2.30;;;10.50;99.90;;;;;;4934253;29;20421;-81
2022/11/02 02:37:35;;;;;;;9.15;3.30;;;11.30;99.90;;;;;;4815122;29;20334;-81
2022/11/02 02:44:25;;;;;;;;;;;;;;;;;;;;;
2022/11/02 02:47:06;;;;;;;12.55;2.50;;;10.50;99.90;;;;;;4856301;29;20093;-82
2022/11/02 02:50:26;;;;;;;;;;;;;;;;;;;;;
2022/11/02 02:56:22;;;;;;;8.18;2.85;;;12.60;99.90;;;;;;4919971;29;20039;-83
2022/11/02 02:58:55;;;;;;;12.00;2.40;;;11.70;99.90;;;;;;4949969;28;20026;-83
2022/11/02 03:02:10;;;;;;;8.10;2.72;;;10.50;99.90;;;;;;4941237;29;20206;-83
2022/11/02 03:04:48;;;;;;;10.63;2.45;;;11.80;99.90;;;;;;4934374;29;20115;-84
2022/11/02 03:07:26;;;;;;;7.68;2.20;;;11.90;99.90;;;;;;4955591;29;20094;-83
2022/11/02 03:10:22;;;;;;;6.75;1.65;;;11.80;99.90;;;;;;4969960;28;20106;-82
2022/11/02 03:13:17;;;;;;;4.78;1.35;;;11.50;99.90;;;;;;4959252;29;20050;-81
2022/11/02 03:15:58;;;;;;;4.60;1.27;;;10.70;99.90;;;;;;4960709;28;20041;-81
2022/11/02 03:18:55;;;;;;;3.93;1.63;;;10.10;99.90;;;;;;4949374;29;20035;-81
2022/11/02 03:21:40;;;;;;;5.40;1.20;;;11.00;99.90;;;;;;4964272;28;20046;-81
2022/11/02 03:27:43;;;;;;;5.13;1.30;;;10.20;99.90;;;;;;4948416;28;20059;-85
2022/11/02 03:34:55;;;;;;;2.50;0.90;;;11.20;99.90;;;;;;4918095;29;20058;-84
2022/11/02 03:37:45;;;;;;;2.85;1.33;;;11.10;99.90;;;;;;4857714;29;20075;-85
2022/11/02 03:40:29;;;;;;;4.00;1.10;;;10.80;99.90;;;;;;4946621;29;20051;-83
2022/11/02 03:43:05;;;;;;;4.22;1.50;;;11.00;99.90;;;;;;4966191;28;20074;-82
2022/11/02 03:45:45;;;;;;;5.57;1.10;;;10.90;99.90;;;;;;4984948;28;20037;-83
2022/11/02 03:48:16;;;;;;;4.90;1.20;;;10.30;99.90;;;;;;4955473;29;20118;-82
2022/11/02 03:51:10;;;;;;;5.93;1.20;;;11.20;99.90;;;;;;4948513;28;20102;-81
2022/11/02 03:54:04;;;;;;;5.38;1.70;;;11.10;99.90;;;;;;4946295;28;20035;-83
2022/11/02 03:56:41;;;;;;;3.25;1.00;;;9.20;99.90;;;;;;4960472;29;20209;-82
2022/11/02 03:59:21;;;;;;;6.30;1.30;;;10.90;99.90;;;;;;4970188;28;20262;-82
2022/11/02 04:02:05;;;;;;;7.22;1.50;;;11.00;99.90;;;;;;4964303;28;20043;-82
2022/11/02 04:08:38;;;;;;;4.28;1.20;;;11.30;99.90;;;;;;4927142;28;20063;-83
2022/11/02 04:20:39;;;;;;;6.78;1.50;;;10.80;99.90;;;;;;4976626;28;20050;-82
2022/11/02 04:26:21;;;;;;;8.87;1.80;;;10.90;99.90;;;;;;4965096;28;20052;-83
2022/11/02 04:28:47;;;;;;;4.53;1.48;;;10.70;99.90;;;;;;4927623;29;20281;-83
2022/11/02 04:31:21;;;;;;;5.40;1.23;;;11.50;99.90;;;;;;4948862;29;20035;-82
2022/11/02 04:34:08;;;;;;;4.30;1.55;;;10.80;99.90;;;;;;4932860;29;20107;-82
2022/11/02 04:36:43;;;;;;;6.55;1.27;;;10.60;99.90;;;;;;4946788;29;20078;-82
2022/11/02 04:39:12;;;;;;;6.13;1.58;;;10.90;99.90;;;;;;4918063;29;20178;-83
2022/11/02 04:41:43;;;;;;;7.15;1.38;;;11.00;99.90;;;;;;4931665;29;20054;-82
2022/11/02 04:44:11;;;;;;;7.85;1.80;;;11.30;99.90;;;;;;4916840;29;20043;-80
2022/11/02 04:46:42;;;;;;;7.10;1.85;;;11.00;99.90;;;;;;4946959;29;20105;-80
2022/11/02 04:56:56;;;;;;;;;;;;;;;;;;;;;
2022/11/02 04:59:43;;;;;;;8.50;1.30;;;10.90;99.90;;;;;;4885828;29;20234;-83
2022/11/02 05:02:09;;;;;;;11.68;2.70;;;11.00;99.90;;;;;;4905978;29;20031;-85
2022/11/02 05:04:35;;;;;;;6.40;1.80;;;10.70;99.90;;;;;;4947921;29;20058;-82
2022/11/02 05:07:06;;;;;;;7.78;1.35;;;10.90;99.90;;;;;;4916089;29;20082;-83
2022/11/02 05:17:15;;;;;;;7.40;2.08;;;;;;;;;;4869212;29;20077;-86
2022/11/02 05:19:41;;;;;;;5.38;1.67;;;10.70;99.90;;;;;;4926487;29;20081;-87
2022/11/02 05:22:07;;;;;;;8.77;1.90;;;10.90;99.90;;;;;;4928627;29;20027;-85
2022/11/02 05:24:36;;;;;;;7.72;2.13;;;10.90;99.90;;;;;;4949863;29;20241;-82
2022/11/02 05:27:02;;;;;;;8.27;1.80;;;11.10;99.90;;;;;;4933373;29;20059;-82
2022/11/02 05:29:27;;;;;;;5.70;2.13;;;10.90;99.90;;;;;;4946801;29;20213;-85
2022/11/02 05:31:57;;;;;;;7.03;2.15;;;10.90;99.90;;;;;;4966367;28;20037;-82
2022/11/02 05:34:22;;;;;;;5.85;1.80;;;10.80;99.90;;;;;;4949331;29;20035;-84
2022/11/02 05:36:48;;;;;;;9.63;2.28;;;9.00;99.90;;;;;;4955562;29;20310;-82
2022/11/02 05:39:14;;;;;;;7.47;2.38;;;8.90;99.90;;;;;;4947889;28;20039;-81
2022/11/02 05:41:43;;;;;;;8.48;2.13;;;10.80;99.90;;;;;;4970060;28;20031;-82
2022/11/02 05:48:19;;;;;;;6.13;2.50;;;12.80;99.90;;;;;;4933265;29;20337;-82
2022/11/02 05:51:21;;;;;;;6.70;2.30;;;11.10;99.90;;;;;;4927111;29;20062;-85
2022/11/02 05:53:47;;;;;;;8.73;2.42;;;10.80;99.90;;;;;;4944352;29;20039;-87
2022/11/02 05:56:13;;;;;;;5.65;1.83;;;10.80;99.90;;;;;;4938230;28;20070;-83
2022/11/02 05:58:50;;;;;;;9.40;2.50;;;11.20;99.90;;;;;;4933909;29;20079;-82
2022/11/02 06:01:16;;;;;;;5.30;1.85;;;11.10;99.90;;;;;;4946686;29;20074;-80
2022/11/02 06:03:48;;;;;;;8.93;2.50;;;10.70;99.90;;;;;;4951468;29;20043;-81
2022/11/02 06:06:14;;;;;;;7.65;2.20;;;11.00;99.90;;;;;;4950200;28;20063;-83
2022/11/02 06:08:39;;;;;;;9.63;2.17;;;11.10;99.90;;;;;;4949634;28;20039;-84
2022/11/02 06:11:11;;;;;;;8.13;2.47;;;10.70;99.90;;;;;;4936466;28;20042;-83
2022/11/02 06:13:50;;;;;;;9.38;2.45;;;9.10;99.90;;;;;;4986745;28;20089;-83
2022/11/02 06:16:16;;;;;;;6.93;2.45;;;10.60;99.90;;;;;;4955576;28;20114;-83
2022/11/02 06:22:27;;;;;;;;;;;10.60;99.90;;;;;;4947343;28;20027;-82
2022/11/02 06:25:04;;;;;;;8.73;2.60;;;10.80;99.90;;;;;;4973930;28;19921;-82
2022/11/02 06:27:54;;;;;;;9.63;2.20;;;9.30;99.90;;;;;;4944040;29;20067;-81
2022/11/02 06:31:01;;;;;;;8.20;2.13;;;11.10;99.90;;;;;;4980941;28;20101;-83
2022/11/02 06:33:54;;;;;;;8.70;2.35;;;10.70;99.90;;;;;;4946087;28;20499;-81
2022/11/02 06:37:24;;;;;;;;;;;;;;;;;;;;;
2022/11/02 06:39:56;;;;;;;13.02;2.75;;;9.60;99.90;;;;;;4962875;28;20118;-81
2022/11/02 06:42:25;;;;;;;10.30;2.35;;;10.20;99.90;;;;;;4932669;29;20043;-80
2022/11/02 06:44:53;;;;;;;10.70;2.10;;;11.10;99.90;;;;;;4933166;28;20062;-81
2022/11/02 06:51:33;;;;;;;8.23;1.85;;;9.90;99.90;;;;;;4909084;29;19914;-79
2022/11/02 06:54:06;;;;;;;7.45;2.22;;;10.40;99.90;;;;;;4838193;29;20120;-80
2022/11/02 06:56:32;;;;;;;9.73;1.90;;;11.50;99.90;;;;;;4939454;28;20263;-81
2022/11/02 06:59:00;;;;;;;8.70;2.15;;;10.90;99.90;;;;;;4934312;28;20066;-79
2022/11/02 07:01:29;;;;;;;13.55;2.50;;;10.90;99.90;;;;;;4966558;28;20049;-80
2022/11/02 07:03:54;;;;;;;9.30;2.17;;;13.60;99.90;;;;;;4966442;28;20031;-79
2022/11/02 07:06:20;;;;;;;7.20;2.03;;;11.40;99.90;;;;;;4947039;29;20222;-80
2022/11/02 07:08:49;;;;;;;9.23;2.28;;;11.10;99.90;;;;;;4950040;28;20222;-82
2022/11/02 07:11:15;;;;;;;8.20;2.40;;;10.70;99.90;;;;;;4961621;28;20074;-80
2022/11/02 07:13:41;;;;;;;11.48;2.95;;;10.80;99.90;;;;;;4947161;28;20035;-79
2022/11/02 07:16:07;;;;;;;12.50;2.20;;;10.90;99.90;;;;;;4980246;28;20086;-80
2022/11/02 07:18:41;;;;;;;7.47;2.20;;;10.80;99.90;;;;;;4950773;28;20038;-79
2022/11/02 07:25:18;;;;;;;;;;;;;;;;;;;;;
2022/11/02 07:28:16;;;;;;;9.60;2.15;;;11.50;99.90;;;;;;4919169;28;1246469;-78
2022/11/02 07:30:45;;;;;;;12.80;2.70;;;11.50;99.90;;;;;;4948452;29;20032;-79
2022/11/02 07:37:23;;;;;;;9.80;2.03;;;10.60;99.90;;;;;;4900027;29;20314;-78
2022/11/02 07:39:51;;;;;;;9.43;2.10;;;11.20;99.90;;;;;;4893571;29;20040;-79
2022/11/02 07:42:17;;;;;;;9.27;2.30;;;10.90;99.90;;;;;;4936558;29;20627;-77
2022/11/02 07:44:44;;;;;;;8.90;1.75;;;11.40;99.90;;;;;;4946852;29;20032;-78
2022/11/02 07:47:12;;;;;;;10.10;2.58;;;11.20;99.90;;;;;;4941479;29;20111;-79
2022/11/02 07:49:38;;;;;;;16.15;2.47;;;10.80;99.90;;;;;;4931021;29;20334;-79
2022/11/02 07:52:07;;;;;;;10.32;1.90;;;11.10;99.90;;;;;;4926258;29;20134;-78
2022/11/02 07:54:33;;;;;;;12.32;2.30;;;11.10;99.90;;;;;;4947712;29;20035;-77
2022/11/02 07:57:04;;;;;;;8.98;1.88;;;10.80;99.90;;;;;;4948359;29;20572;-79
2022/11/02 07:59:32;;;;;;;8.38;1.48;;;11.00;99.90;;;;;;4947488;29;20098;-79
2022/11/02 08:02:02;;;;;;;5.20;1.50;;;10.20;99.90;;;;;;4946502;29;20042;-80
2022/11/02 08:04:28;;;;;;;8.20;1.20;;;10.60;99.90;;;;;;4938135;29;20027;-80
2022/11/02 08:06:57;;;;;;;4.32;1.20;;;10.80;99.90;;;;;;4960255;29;20094;-80
2022/11/02 08:09:25;;;;;;;5.13;1.25;;;11.60;99.90;;;;;;4923282;29;20027;-80
2022/11/02 08:11:54;;;;;;;4.65;1.00;;;10.70;99.90;;;;;;4932809;29;20062;-81
2022/11/02 08:14:56;;;;;;;6.95;1.20;;;10.90;99.90;;;;;;4942527;29;20377;-82
2022/11/02 08:17:28;;;;;;;6.15;1.38;;;10.20;99.90;;;;;;4947798;29;20035;-75
2022/11/02 08:19:54;;;;;;;6.57;1.88;;;10.60;99.90;;;;;;4931009;29;20023;-79
2022/11/02 08:22:22;;;;;;;3.80;1.40;;;11.00;99.90;;;;;;4941295;29;20042;-78
2022/11/02 08:24:53;;;;;;;4.43;1.05;;;11.20;99.90;;;;;;4941570;29;20221;-81
2022/11/02 08:27:29;;;;;;;3.17;1.00;;;11.30;99.90;;;;;;4941857;29;20035;-82
2022/11/02 08:30:05;;;;;;;4.93;1.15;;;11.50;99.90;;;;;;4946420;29;20321;-81
2022/11/02 08:33:14;;;;;;;6.05;1.40;;;11.80;99.90;;;;;;4939068;29;20066;-82
2022/11/02 08:39:09;;;;;;;4.28;1.10;;;12.30;99.90;;;;;;4950167;29;20213;-82
2022/11/02 08:42:29;;;;;;;4.68;1.10;;;12.20;99.90;;;;;;4930725;29;20050;-78
2022/11/02 08:45:15;;;;;;;3.55;1.15;;;10.90;99.90;;;;;;4972739;28;20047;-78
2022/11/02 08:48:14;;;;;;;3.63;1.10;;;13.20;99.90;;;;;;4964098;28;20038;-82
2022/11/02 08:50:59;;;;;;;6.68;1.40;;;12.80;99.90;;;;;;4974880;28;20155;-78
2022/11/02 09:00:32;;;;;;;4.95;1.30;;;12.50;99.90;;;;;;4912036;29;20043;-78
2022/11/02 09:03:28;;;;;;;5.75;1.23;;;12.20;99.90;;;;;;4903693;29;20044;-79
2022/11/02 09:06:00;;;;;;;5.75;1.42;;;13.40;99.90;;;;;;4897950;29;20108;-80
2022/11/02 09:08:48;;;;;;;;;;;12.90;99.90;;;;;;4905627;29;20100;-79
2022/11/02 09:12:12;;;;;;;6.35;1.30;;;13.60;99.90;;;;;;4897340;29;19919;-80
2022/11/02 09:14:47;;;;;;;5.95;1.45;;;12.00;99.90;;;;;;4868457;29;20074;-79
2022/11/02 09:17:13;;;;;;;3.03;1.17;;;13.30;99.90;;;;;;4901032;29;20059;-80
2022/11/02 09:19:41;;;;;;;9.60;2.05;;;13.90;99.90;;;;;;4900548;29;20358;-80
2022/11/02 09:22:07;;;;;;;5.32;1.60;;;13.50;99.90;;;;;;4886432;29;20055;-80
2022/11/02 09:27:55;;;;;;;5.72;1.38;;;13.60;99.90;;;;;;4910039;29;20075;-80
2022/11/02 09:30:27;;;;;;;6.00;1.60;;;12.30;99.90;;;;;;4942439;29;20058;-82
2022/11/02 09:32:54;;;;;;;6.35;1.23;;;12.40;99.90;;;;;;4959676;29;20097;-81
2022/11/02 09:35:21;;;;;;;7.00;1.73;;;13.80;99.90;;;;;;4926756;28;20338;-79
2022/11/02 09:37:47;;;;;;;6.07;1.20;;;13.80;99.90;;;;;;4943438;29;20114;-79
2022/11/02 09:40:19;;;;;;;8.50;1.50;;;13.80;99.90;;;;;;4919388;29;20031;-79
2022/11/02 09:42:59;;;;;;;5.45;1.55;;;13.80;99.90;;;;;;4946059;28;20212;-80
2022/11/02 09:45:26;;;;;;;7.28;2.00;;;14.30;99.90;;;;;;4955126;28;20249;-80
2022/11/02 09:51:13;;;;;;;7.93;2.05;;;14.70;99.90;;;;;;4939572;28;20039;-80
2022/11/02 09:53:43;;;;;;;13.68;2.33;;;15.00;99.90;;;;;;4942742;29;20066;-78
2022/11/02 09:56:12;;;;;;;6.53;1.48;;;14.80;99.90;;;;;;4937835;29;20039;-80
2022/11/02 09:58:39;;;;;;;5.78;1.50;;;14.50;99.90;;;;;;4941518;29;20035;-79
2022/11/02 10:01:30;;;;;;;4.88;1.55;;;14.40;99.90;;;;;;4935212;29;20038;-80
2022/11/02 10:04:21;;;;;;;6.30;1.92;;;13.80;99.90;;;;;;4950600;28;20085;-79
2022/11/02 10:07:10;;;;;;;8.15;2.00;;;13.80;99.90;;;;;;4958603;28;20242;-79
2022/11/02 10:09:52;;;;;;;5.32;1.60;;;13.80;99.90;;;;;;4935218;29;20240;-80
2022/11/02 10:12:43;;;;;;;9.48;1.63;;;13.50;99.90;;;;;;4925865;29;20098;-79
2022/11/02 10:15:20;;;;;;;6.70;1.95;;;14.80;99.90;;;;;;4933180;29;20034;-78
2022/11/02 10:17:57;;;;;;;10.10;1.70;;;15.20;99.90;;;;;;4952688;29;20031;-80
2022/11/02 10:24:18;;;;;;;12.10;2.83;;;12.80;99.90;;;;;;4921608;28;20094;-79
2022/11/02 10:30:49;;;;;;;7.10;1.40;;;12.60;99.90;;;;;;4957675;28;20335;-80
2022/11/02 10:33:30;;;;;;;13.65;1.90;;;11.20;99.90;;;;;;4935531;28;20074;-80
2022/11/02 10:36:20;;;;;;;5.53;1.55;;;11.70;99.90;;;;;;4950192;28;20038;-80
2022/11/02 10:43:15;;;;;;;10.80;1.80;;;11.90;99.90;;;;;;4929526;29;20043;-80
2022/11/02 10:46:22;;;;;;;4.97;1.67;;;12.60;99.90;;;;;;4940984;28;20066;-80
2022/11/02 10:49:26;;;;;;;7.97;1.70;;;13.30;99.90;;;;;;4958635;28;20039;-81
2022/11/02 10:51:55;;;;;;;8.77;2.35;;;12.30;99.90;;;;;;4987188;28;20046;-81
2022/11/02 10:57:59;;;;;;;7.82;1.50;;;13.20;99.90;;;;;;4882714;29;20116;-80
2022/11/02 11:00:32;;;;;;;7.72;2.05;;;13.50;99.90;;;;;;4922091;29;20400;-78
2022/11/02 11:03:06;;;;;;;4.93;1.83;;;13.90;99.90;;;;;;4967511;28;20084;-81
2022/11/02 11:05:34;;;;;;;10.60;2.00;;;12.10;99.90;;;;;;4970384;28;20035;-82
2022/11/02 11:08:00;;;;;;;4.18;1.20;;;14.00;99.90;;;;;;4964013;28;20047;-79
2022/11/02 11:10:27;;;;;;;9.75;1.42;;;14.20;99.90;;;;;;4974708;28;20043;-80
2022/11/02 11:12:55;;;;;;;7.60;1.65;;;14.30;99.90;;;;;;4950512;28;20066;-79
2022/11/02 11:15:31;;;;;;;5.10;1.52;;;14.10;99.90;;;;;;4968540;28;20030;-79
2022/11/02 11:17:57;;;;;;;10.90;1.75;;;14.40;99.90;;;;;;4944246;28;20117;-80
2022/11/02 11:20:35;;;;;;;6.53;1.40;;;14.20;99.90;;;;;;4949511;28;20027;-79
2022/11/02 11:23:42;;;;;;;6.30;1.30;;;14.20;99.90;;;;;;4981744;28;20034;-78
2022/11/02 11:26:30;;;;;;;5.22;1.25;;;13.90;99.90;;;;;;4967852;28;20226;-77
2022/11/02 11:28:56;;;;;;;10.70;1.65;;;13.80;99.90;;;;;;4948838;28;20085;-78
2022/11/02 11:31:22;;;;;;;7.78;1.42;;;13.70;99.90;;;;;;4947328;28;20066;-76
2022/11/02 11:33:57;;;;;;;9.40;1.67;;;13.70;99.90;;;;;;4964797;28;20040;-75
2022/11/02 11:36:32;;;;;;;10.43;1.90;;;13.70;99.90;;;;;;4966938;28;20039;-74
2022/11/02 11:39:04;;;;;;;8.30;1.40;;;13.60;99.90;;;;;;4948441;28;20043;-77
2022/11/02 11:41:31;;;;;;;6.30;1.50;;;13.50;99.90;;;;;;4960104;28;20060;-79
2022/11/02 11:44:16;;;;;;;7.10;1.65;;;13.60;99.90;;;;;;4978596;28;20086;-79
2022/11/02 11:46:46;;;;;;;7.20;1.73;;;13.70;99.90;;;;;;4910740;29;20095;-80
2022/11/02 11:49:37;;;;;;;6.93;1.45;;;13.70;99.90;;;;;;4888511;29;20060;-77
2022/11/02 11:53:26;;;;;;;6.95;1.88;;;13.70;99.90;;;;;;4899728;29;20062;-78
2022/11/02 11:57:12;;;;;;;;;;;;;;;;;;;;;
2022/11/02 12:00:03;;;;;;;8.48;1.65;;;13.00;99.90;;;;;;4846243;29;20129;-81
2022/11/02 12:03:01;;;;;;;8.30;1.55;;;13.40;99.90;;;;;;4844969;29;20056;-78
2022/11/02 12:05:28;;;;;;;6.53;1.70;;;13.50;99.90;;;;;;4873178;29;20056;-80
2022/11/02 12:08:26;;;;;;;5.85;1.42;;;13.40;99.90;;;;;;4922041;29;20322;-79
2022/11/02 12:11:05;;;;;;;7.65;1.35;;;13.30;99.90;;;;;;4890873;29;20123;-82
2022/11/02 12:13:54;;;;;;;4.57;1.25;;;13.50;99.90;;;;;;4890212;29;20056;-78
2022/11/02 12:16:58;;;;;;;8.25;1.33;;;11.70;99.90;;;;;;4890864;29;20362;-79
2022/11/02 12:19:56;;;;;;;6.80;1.13;;;13.10;99.90;;;;;;4898946;29;20338;-79
2022/11/02 12:23:06;;;;;;;6.32;1.42;;;13.30;99.90;;;;;;4929492;29;20149;-77
2022/11/02 12:25:50;;;;;;;8.02;1.50;;;13.30;99.90;;;;;;4903538;29;20075;-80
2022/11/02 12:33:04;;;;;;;6.63;1.50;;;13.60;99.90;;;;;;4906686;29;20353;-79
2022/11/02 12:35:43;;;;;;;7.27;1.57;;;13.40;99.90;;;;;;4899490;29;20037;-79
2022/11/02 12:38:22;;;;;;;5.47;1.30;;;13.20;99.90;;;;;;4884423;29;20049;-82
2022/11/02 12:40:53;;;;;;;6.43;1.40;;;13.30;99.90;;;;;;4853306;29;20085;-81
2022/11/02 12:43:25;;;;;;;7.38;1.48;;;13.20;99.90;;;;;;4890218;28;20090;-77
2022/11/02 12:46:03;;;;;;;5.13;1.50;;;13.20;99.90;;;;;;4945133;29;20039;-76
2022/11/02 12:48:49;;;;;;;7.35;1.40;;;13.20;99.90;;;;;;4941370;29;20031;-78
2022/11/02 12:55:30;;;;;;;7.63;1.37;;;13.30;99.90;;;;;;4934194;29;20111;-80
2022/11/02 12:58:05;;;;;;;5.97;1.35;;;13.30;99.90;;;;;;4886661;29;20028;-78
2022/11/02 13:00:36;;;;;;;5.05;1.30;;;13.20;99.90;;;;;;4944634;29;20039;-81
2022/11/02 13:03:33;;;;;;;6.13;1.73;;;13.30;99.90;;;;;;4925575;29;20052;-78
2022/11/02 13:06:08;;;;;;;6.38;1.27;;;11.90;99.90;;;;;;4925866;29;20199;-77
2022/11/02 13:12:27;;;;;;;7.63;1.45;;;13.30;99.90;;;;;;4911046;29;20051;-82
2022/11/02 13:14:55;;;;;;;8.30;1.60;;;13.20;99.90;;;;;;4904686;29;20036;-77
2022/11/02 13:17:39;;;;;;;6.45;1.73;;;13.30;99.90;;;;;;4905318;29;20046;-80
2022/11/02 13:20:19;;;;;;;8.48;1.67;;;13.30;99.90;;;;;;4925432;29;20035;-76
2022/11/02 13:23:09;;;;;;;7.75;1.42;;;13.20;99.90;;;;;;4924090;29;20085;-75
2022/11/02 13:25:43;;;;;;;11.48;2.03;;;13.20;99.90;;;;;;4903944;29;20058;-80
2022/11/02 13:28:32;;;;;;;8.27;1.35;;;12.90;99.90;;;;;;4945836;29;20549;-80
2022/11/02 13:30:58;;;;;;;6.13;1.20;;;12.90;99.90;;;;;;4910085;29;20574;-79
2022/11/02 13:33:30;;;;;;;6.53;2.08;;;12.80;99.90;;;;;;4941894;29;20289;-80
2022/11/02 13:35:55;;;;;;;7.18;1.35;;;12.70;99.90;;;;;;4964468;28;20393;-78
2022/11/02 13:38:39;;;;;;;7.53;1.40;;;12.70;99.90;;;;;;4963407;28;20066;-80
2022/11/02 13:41:31;;;;;;;7.97;1.42;;;11.30;99.90;;;;;;4951698;28;20034;-79
2022/11/02 13:44:27;;;;;;;12.98;1.58;;;13.90;99.90;;;;;;4960741;28;20050;-79
2022/11/02 13:47:05;;;;;;;5.57;1.20;;;13.00;99.90;;;;;;4944723;29;20392;-78
2022/11/02 13:49:35;;;;;;;7.28;1.27;;;13.20;99.90;;;;;;4978270;28;20089;-80
2022/11/02 13:52:13;;;;;;;6.97;1.35;;;13.20;99.90;;;;;;4949008;29;20217;-80
2022/11/02 13:54:45;;;;;;;7.55;1.30;;;13.30;99.90;;;;;;4946278;28;20027;-79
2022/11/02 13:58:04;;;;;;;6.93;1.63;;;13.30;99.90;;;;;;4945316;29;20063;-81
2022/11/02 14:00:40;;;;;;;7.05;1.30;;;11.90;99.90;;;;;;4956279;29;20121;-80
2022/11/02 14:03:22;;;;;;;6.68;1.75;;;13.70;99.90;;;;;;4944713;29;20050;-81
2022/11/02 14:06:08;;;;;;;7.57;1.60;;;12.40;99.90;;;;;;4962327;28;20031;-79
2022/11/02 14:08:37;;;;;;;8.00;1.65;;;13.70;99.90;;;;;;4961189;28;20043;-81
2022/11/02 14:12:02;;;;;;;7.25;1.30;;;13.60;99.90;;;;;;4977999;28;20043;-80
2022/11/02 14:15:00;;;;;;;6.80;1.30;;;14.00;99.90;;;;;;4901544;28;20246;-81
2022/11/02 14:18:02;;;;;;;6.93;1.38;;;13.10;99.90;;;;;;4952443;28;20073;-79
2022/11/02 14:20:31;;;;;;;8.60;1.58;;;13.40;99.90;;;;;;4957696;28;20030;-77
2022/11/02 14:23:08;;;;;;;7.30;1.65;;;13.90;99.90;;;;;;4966894;28;20054;-78
2022/11/02 14:25:57;;;;;;;9.73;1.75;;;13.10;99.90;;;;;;4974597;28;20038;-76
2022/11/02 14:29:43;;;;;;;;;;;;;;;;;;;;;
2022/11/02 14:33:13;;;;;;;8.48;1.20;;;12.90;99.90;;;;;;4849925;29;20085;-78
2022/11/02 14:39:39;;;;;;;8.57;1.67;;;13.00;99.90;;;;;;4952845;29;20191;-78
2022/11/02 14:42:13;;;;;;;9.43;1.75;;;13.30;99.90;;;;;;4931554;29;20115;-77
2022/11/02 14:44:51;;;;;;;8.30;1.50;;;13.00;99.90;;;;;;4931623;29;20226;-80
2022/11/02 14:47:19;;;;;;;7.63;1.48;;;13.00;99.90;;;;;;4940129;29;20036;-77
2022/11/02 14:49:55;;;;;;;11.20;1.95;;;13.00;99.90;;;;;;4940940;29;20143;-81
2022/11/02 14:52:31;;;;;;;4.13;1.63;;;12.90;99.90;;;;;;4947957;28;20043;-79
2022/11/02 14:55:08;;;;;;;10.55;1.70;;;12.70;99.90;;;;;;4947385;29;20070;-78
2022/11/02 14:57:37;;;;;;;5.43;1.92;;;12.70;99.90;;;;;;4947778;29;20073;-80
2022/11/02 15:00:28;;;;;;;11.88;2.42;;;12.60;99.90;;;;;;4947159;29;20285;-80
2022/11/02 15:02:57;;;;;;;6.95;2.33;;;12.50;99.90;;;;;;4947634;28;20039;-81
2022/11/02 15:05:36;;;;;;;7.20;2.08;;;12.40;99.90;;;;;;4928399;29;20233;-78
2022/11/02 15:15:52;;;;;;;10.77;1.85;;;13.10;99.90;;;;;;4936423;29;20098;-78
2022/11/02 15:18:27;;;;;;;9.88;1.90;;;12.30;99.90;;;;;;4904041;29;20226;-80
2022/11/02 15:21:18;;;;;;;8.02;1.60;;;12.30;99.90;;;;;;4950670;28;20046;-78
2022/11/02 15:23:51;;;;;;;12.48;2.65;;;12.60;99.90;;;;;;4950181;28;20046;-79
2022/11/02 15:26:54;;;;;;;10.13;1.83;;;10.30;99.90;;;;;;4950074;28;20089;-79
2022/11/02 15:29:29;;;;;;;7.03;1.73;;;12.50;99.90;;;;;;4945912;29;20047;-81
2022/11/02 15:31:56;;;;;;;;;;;12.40;99.90;;;;;;4947116;28;20047;-79
2022/11/02 15:35:01;;;;;;;5.70;1.55;;;12.20;99.90;;;;;;4965867;28;20103;-78
2022/11/02 15:37:30;;;;;;;8.70;1.70;;;10.90;99.90;;;;;;4906111;29;20091;-81
2022/11/02 15:39:59;;;;;;;5.95;1.20;;;12.20;99.90;;;;;;4921659;28;20051;-79
2022/11/02 15:42:42;;;;;;;4.45;1.20;;;12.10;99.90;;;;;;4955355;29;20207;-81
2022/11/02 15:45:20;;;;;;;9.27;2.20;;;13.90;99.90;;;;;;4962615;29;20059;-81
2022/11/02 15:47:57;;;;;;;10.70;2.20;;;12.10;99.90;;;;;;4949345;28;20106;-80
2022/11/02 15:54:28;;;;;;;8.10;1.50;;;12.00;99.90;;;;;;4947433;28;19918;-81
2022/11/02 15:57:21;;;;;;;9.10;1.75;;;11.80;99.90;;;;;;4962008;29;20038;-79
2022/11/02 16:00:13;;;;;;;12.18;2.85;;;11.90;99.90;;;;;;4949125;28;20050;-80
2022/11/02 16:02:48;;;;;;;8.32;1.40;;;13.70;99.90;;;;;;4962190;28;20409;-80
2022/11/02 16:05:23;;;;;;;7.20;2.00;;;12.00;99.90;;;;;;4946838;28;20039;-80
2022/11/02 16:08:01;;;;;;;8.82;2.10;;;11.90;99.90;;;;;;4964135;28;20102;-78
2022/11/02 16:10:28;;;;;;;12.63;4.57;;;11.90;99.90;;;;;;4956305;29;20069;-80
2022/11/02 16:13:06;;;;;;;10.57;4.40;;;11.80;99.90;;;;;;4965813;28;20089;-79
2022/11/02 16:15:39;;;;;;;12.95;2.83;;;11.80;99.90;;;;;;4947053;29;20035;-81
2022/11/02 16:18:05;;;;;;;26.45;13.77;;;11.80;99.90;;;;;;4986516;28;20038;-78
2022/11/02 16:20:39;;;;;;;13.88;5.72;;;11.80;99.90;;;;;;4955869;28;20069;-79
2022/11/02 16:23:06;;;;;;;11.20;3.97;;;11.70;99.90;;;;;;4965944;28;20510;-79
2022/11/02 16:25:43;;;;;;;7.65;4.35;;;11.60;99.90;;;;;;4949734;28;20034;-79
2022/11/02 16:28:28;;;;;;;12.63;4.30;;;11.50;99.90;;;;;;4942389;28;20043;-79
2022/11/02 16:31:09;;;;;;;7.88;3.47;;;11.60;99.90;;;;;;4954141;28;20225;-78
2022/11/02 16:33:42;;;;;;;8.35;2.40;;;11.50;99.90;;;;;;4964682;28;20042;-79
2022/11/02 16:36:16;;;;;;;6.38;2.60;;;11.50;99.90;;;;;;4974007;28;20254;-78